sensor_id;sensor_type;location;lat;lon;timestamp;P1;durP1;ratioP1;P2;durP2;ratioP2
41217;SDS011;26950;50.960;7.138;2023-07-28T00:01:20;4.35;;;1.20;;
41217;SDS011;26950;50.960;7.138;2023-07-28T00:03:46;2.90;;;1.30;;
41217;SDS011;26950;50.960;7.138;2023-07-28T00:06:12;2.72;;;1.40;;
41217;SDS011;26950;50.960;7.138;2023-07-28T00:08:39;2.45;;;1.30;;
41217;SDS011;26950;50.960;7.138;2023-07-28T00:11:08;3.88;;;1.50;;
41217;SDS011;26950;50.960;7.138;2023-07-28T00:13:36;1.77;;;1.23;;
41217;SDS011;26950;50.960;7.138;2023-07-28T00:16:04;2.60;;;1.40;;
41217;SDS011;26950;50.960;7.138;2023-07-28T00:18:31;3.20;;;2.20;;
41217;SDS011;26950;50.960;7.138;2023-07-28T00:20:58;1.80;;;1.30;;
41217;SDS011;26950;50.960;7.138;2023-07-28T00:23:24;2.15;;;1.52;;
41217;SDS011;26950;50.960;7.138;2023-07-28T00:25:51;3.08;;;1.23;;
41217;SDS011;26950;50.960;7.138;2023-07-28T00:28:17;3.70;;;1.60;;
41217;SDS011;26950;50.960;7.138;2023-07-28T00:30:44;2.08;;;1.20;;
41217;SDS011;26950;50.960;7.138;2023-07-28T00:33:12;2.05;;;1.50;;
41217;SDS011;26950;50.960;7.138;2023-07-28T00:35:38;1.60;;;1.30;;
41217;SDS011;26950;50.960;7.138;2023-07-28T00:38:04;4.13;;;1.30;;
41217;SDS011;26950;50.960;7.138;2023-07-28T00:40:31;1.90;;;1.40;;
41217;SDS011;26950;50.960;7.138;2023-07-28T00:42:57;3.42;;;1.58;;
41217;SDS011;26950;50.960;7.138;2023-07-28T00:45:24;1.60;;;1.20;;
41217;SDS011;26950;50.960;7.138;2023-07-28T00:47:51;2.10;;;1.40;;
41217;SDS011;26950;50.960;7.138;2023-07-28T00:50:19;3.05;;;1.30;;
41217;SDS011;26950;50.960;7.138;2023-07-28T00:52:46;1.95;;;1.17;;
41217;SDS011;26950;50.960;7.138;2023-07-28T00:55:14;4.55;;;1.95;;
41217;SDS011;26950;50.960;7.138;2023-07-28T00:57:40;1.67;;;1.40;;
41217;SDS011;26950;50.960;7.138;2023-07-28T01:00:07;2.67;;;1.40;;
41217;SDS011;26950;50.960;7.138;2023-07-28T01:02:34;1.65;;;1.20;;
41217;SDS011;26950;50.960;7.138;2023-07-28T01:05:02;2.33;;;1.30;;
41217;SDS011;26950;50.960;7.138;2023-07-28T01:07:34;2.10;;;1.40;;
41217;SDS011;26950;50.960;7.138;2023-07-28T01:10:05;2.92;;;1.30;;
41217;SDS011;26950;50.960;7.138;2023-07-28T01:12:34;2.70;;;1.48;;
41217;SDS011;26950;50.960;7.138;2023-07-28T01:15:01;6.90;;;1.60;;
41217;SDS011;26950;50.960;7.138;2023-07-28T01:17:27;1.90;;;1.30;;
41217;SDS011;26950;50.960;7.138;2023-07-28T01:19:54;3.67;;;1.17;;
41217;SDS011;26950;50.960;7.138;2023-07-28T01:22:27;2.80;;;1.52;;
41217;SDS011;26950;50.960;7.138;2023-07-28T01:25:14;2.17;;;1.25;;
41217;SDS011;26950;50.960;7.138;2023-07-28T01:27:49;5.13;;;1.40;;
41217;SDS011;26950;50.960;7.138;2023-07-28T01:30:17;3.28;;;1.40;;
41217;SDS011;26950;50.960;7.138;2023-07-28T01:32:44;1.58;;;1.17;;
41217;SDS011;26950;50.960;7.138;2023-07-28T01:35:11;3.10;;;1.58;;
41217;SDS011;26950;50.960;7.138;2023-07-28T01:37:37;5.72;;;1.60;;
41217;SDS011;26950;50.960;7.138;2023-07-28T01:40:04;2.00;;;1.20;;
41217;SDS011;26950;50.960;7.138;2023-07-28T01:42:31;2.35;;;1.38;;
41217;SDS011;26950;50.960;7.138;2023-07-28T01:44:59;1.83;;;1.20;;
41217;SDS011;26950;50.960;7.138;2023-07-28T01:47:25;6.00;;;1.30;;
41217;SDS011;26950;50.960;7.138;2023-07-28T01:49:52;1.70;;;1.20;;
41217;SDS011;26950;50.960;7.138;2023-07-28T01:52:18;2.13;;;1.20;;
41217;SDS011;26950;50.960;7.138;2023-07-28T01:54:46;4.22;;;1.20;;
41217;SDS011;26950;50.960;7.138;2023-07-28T01:57:13;2.58;;;1.20;;
41217;SDS011;26950;50.960;7.138;2023-07-28T01:59:39;2.92;;;1.17;;
41217;SDS011;26950;50.960;7.138;2023-07-28T02:02:07;3.92;;;1.67;;
41217;SDS011;26950;50.960;7.138;2023-07-28T02:04:33;2.47;;;1.35;;
41217;SDS011;26950;50.960;7.138;2023-07-28T02:07:00;2.13;;;1.13;;
41217;SDS011;26950;50.960;7.138;2023-07-28T02:09:27;2.55;;;1.10;;
41217;SDS011;26950;50.960;7.138;2023-07-28T02:11:53;3.08;;;1.25;;
41217;SDS011;26950;50.960;7.138;2023-07-28T02:14:19;2.13;;;1.15;;
41217;SDS011;26950;50.960;7.138;2023-07-28T02:16:46;1.65;;;1.20;;
41217;SDS011;26950;50.960;7.138;2023-07-28T02:19:14;2.80;;;1.30;;
41217;SDS011;26950;50.960;7.138;2023-07-28T02:21:40;6.47;;;1.35;;
41217;SDS011;26950;50.960;7.138;2023-07-28T02:24:07;3.47;;;1.42;;
41217;SDS011;26950;50.960;7.138;2023-07-28T02:26:33;1.65;;;1.10;;
41217;SDS011;26950;50.960;7.138;2023-07-28T02:28:59;1.58;;;1.15;;
41217;SDS011;26950;50.960;7.138;2023-07-28T02:31:26;5.07;;;1.10;;
41217;SDS011;26950;50.960;7.138;2023-07-28T02:33:52;1.85;;;1.20;;
41217;SDS011;26950;50.960;7.138;2023-07-28T02:36:20;1.17;;;1.02;;
41217;SDS011;26950;50.960;7.138;2023-07-28T02:38:46;2.30;;;1.10;;
41217;SDS011;26950;50.960;7.138;2023-07-28T02:41:13;1.92;;;1.00;;
41217;SDS011;26950;50.960;7.138;2023-07-28T02:43:39;1.88;;;1.02;;
41217;SDS011;26950;50.960;7.138;2023-07-28T02:46:06;2.10;;;1.13;;
41217;SDS011;26950;50.960;7.138;2023-07-28T02:48:33;3.95;;;1.00;;
41217;SDS011;26950;50.960;7.138;2023-07-28T02:50:59;3.33;;;1.08;;
41217;SDS011;26950;50.960;7.138;2023-07-28T02:53:27;1.88;;;1.08;;
41217;SDS011;26950;50.960;7.138;2023-07-28T02:55:53;1.65;;;0.90;;
41217;SDS011;26950;50.960;7.138;2023-07-28T02:58:20;1.00;;;0.82;;
41217;SDS011;26950;50.960;7.138;2023-07-28T03:00:46;1.23;;;0.90;;
41217;SDS011;26950;50.960;7.138;2023-07-28T03:03:12;1.85;;;1.00;;
41217;SDS011;26950;50.960;7.138;2023-07-28T03:05:39;1.83;;;1.20;;
41217;SDS011;26950;50.960;7.138;2023-07-28T03:08:06;1.30;;;0.93;;
41217;SDS011;26950;50.960;7.138;2023-07-28T03:10:34;0.70;;;0.70;;
41217;SDS011;26950;50.960;7.138;2023-07-28T03:13:00;2.50;;;0.80;;
41217;SDS011;26950;50.960;7.138;2023-07-28T03:15:26;1.05;;;0.95;;
41217;SDS011;26950;50.960;7.138;2023-07-28T03:17:53;1.05;;;0.90;;
41217;SDS011;26950;50.960;7.138;2023-07-28T03:20:19;1.50;;;0.80;;
41217;SDS011;26950;50.960;7.138;2023-07-28T03:22:46;0.85;;;0.80;;
41217;SDS011;26950;50.960;7.138;2023-07-28T03:25:12;3.95;;;0.98;;
41217;SDS011;26950;50.960;7.138;2023-07-28T03:27:40;2.53;;;0.90;;
41217;SDS011;26950;50.960;7.138;2023-07-28T03:30:07;2.47;;;0.80;;
41217;SDS011;26950;50.960;7.138;2023-07-28T03:32:35;1.17;;;0.63;;
41217;SDS011;26950;50.960;7.138;2023-07-28T03:35:02;1.00;;;0.70;;
41217;SDS011;26950;50.960;7.138;2023-07-28T03:37:30;0.90;;;0.80;;
41217;SDS011;26950;50.960;7.138;2023-07-28T03:39:56;1.00;;;0.70;;
41217;SDS011;26950;50.960;7.138;2023-07-28T03:42:23;0.85;;;0.70;;
41217;SDS011;26950;50.960;7.138;2023-07-28T03:44:51;0.50;;;0.50;;
41217;SDS011;26950;50.960;7.138;2023-07-28T03:47:18;2.72;;;0.70;;
41217;SDS011;26950;50.960;7.138;2023-07-28T03:49:45;1.70;;;0.93;;
41217;SDS011;26950;50.960;7.138;2023-07-28T03:52:11;0.70;;;0.70;;
41217;SDS011;26950;50.960;7.138;2023-07-28T03:54:38;1.30;;;0.80;;
41217;SDS011;26950;50.960;7.138;2023-07-28T03:57:05;1.33;;;1.00;;
41217;SDS011;26950;50.960;7.138;2023-07-28T03:59:31;1.73;;;0.80;;
41217;SDS011;26950;50.960;7.138;2023-07-28T04:01:59;1.42;;;0.80;;
41217;SDS011;26950;50.960;7.138;2023-07-28T04:04:26;2.67;;;0.80;;
41217;SDS011;26950;50.960;7.138;2023-07-28T04:06:52;1.75;;;0.85;;
41217;SDS011;26950;50.960;7.138;2023-07-28T04:09:19;3.70;;;0.90;;
41217;SDS011;26950;50.960;7.138;2023-07-28T04:11:45;1.52;;;1.08;;
41217;SDS011;26950;50.960;7.138;2023-07-28T04:14:12;3.65;;;0.90;;
41217;SDS011;26950;50.960;7.138;2023-07-28T04:16:39;2.15;;;0.80;;
41217;SDS011;26950;50.960;7.138;2023-07-28T04:19:07;1.30;;;0.80;;
41217;SDS011;26950;50.960;7.138;2023-07-28T04:21:34;2.20;;;1.23;;
41217;SDS011;26950;50.960;7.138;2023-07-28T04:24:00;2.45;;;1.27;;
41217;SDS011;26950;50.960;7.138;2023-07-28T04:26:27;1.10;;;1.00;;
41217;SDS011;26950;50.960;7.138;2023-07-28T04:28:53;3.50;;;0.90;;
41217;SDS011;26950;50.960;7.138;2023-07-28T04:31:19;3.22;;;1.10;;
41217;SDS011;26950;50.960;7.138;2023-07-28T04:33:46;1.10;;;1.00;;
41217;SDS011;26950;50.960;7.138;2023-07-28T04:36:14;2.38;;;1.02;;
41217;SDS011;26950;50.960;7.138;2023-07-28T04:38:40;1.67;;;1.00;;
41217;SDS011;26950;50.960;7.138;2023-07-28T04:41:07;1.10;;;0.85;;
41217;SDS011;26950;50.960;7.138;2023-07-28T04:43:33;1.40;;;0.90;;
41217;SDS011;26950;50.960;7.138;2023-07-28T04:45:59;1.00;;;0.90;;
41217;SDS011;26950;50.960;7.138;2023-07-28T04:48:26;2.67;;;1.00;;
41217;SDS011;26950;50.960;7.138;2023-07-28T04:50:53;3.25;;;1.00;;
41217;SDS011;26950;50.960;7.138;2023-07-28T04:53:21;2.20;;;0.80;;
41217;SDS011;26950;50.960;7.138;2023-07-28T04:55:47;1.83;;;0.82;;
41217;SDS011;26950;50.960;7.138;2023-07-28T04:58:14;1.13;;;0.85;;
41217;SDS011;26950;50.960;7.138;2023-07-28T05:00:40;1.17;;;0.95;;
41217;SDS011;26950;50.960;7.138;2023-07-28T05:03:07;2.05;;;0.80;;
41217;SDS011;26950;50.960;7.138;2023-07-28T05:05:33;3.30;;;1.00;;
41217;SDS011;26950;50.960;7.138;2023-07-28T05:08:00;3.72;;;0.77;;
41217;SDS011;26950;50.960;7.138;2023-07-28T05:10:28;0.77;;;0.70;;
41217;SDS011;26950;50.960;7.138;2023-07-28T05:12:54;3.17;;;0.60;;
41217;SDS011;26950;50.960;7.138;2023-07-28T05:15:21;1.17;;;0.80;;
41217;SDS011;26950;50.960;7.138;2023-07-28T05:17:48;1.25;;;0.73;;
41217;SDS011;26950;50.960;7.138;2023-07-28T05:20:15;0.73;;;0.73;;
41217;SDS011;26950;50.960;7.138;2023-07-28T05:22:42;2.80;;;0.77;;
41217;SDS011;26950;50.960;7.138;2023-07-28T05:25:08;1.48;;;0.82;;
41217;SDS011;26950;50.960;7.138;2023-07-28T05:27:36;2.45;;;0.80;;
41217;SDS011;26950;50.960;7.138;2023-07-28T05:30:03;1.63;;;0.80;;
41217;SDS011;26950;50.960;7.138;2023-07-28T05:32:30;1.23;;;0.88;;
41217;SDS011;26950;50.960;7.138;2023-07-28T05:34:57;2.45;;;1.20;;
41217;SDS011;26950;50.960;7.138;2023-07-28T05:37:24;1.20;;;0.90;;
41217;SDS011;26950;50.960;7.138;2023-07-28T05:39:50;6.70;;;1.25;;
41217;SDS011;26950;50.960;7.138;2023-07-28T05:42:17;2.47;;;1.10;;
41217;SDS011;26950;50.960;7.138;2023-07-28T05:44:44;1.60;;;0.85;;
41217;SDS011;26950;50.960;7.138;2023-07-28T05:47:11;1.98;;;1.13;;
41217;SDS011;26950;50.960;7.138;2023-07-28T05:49:37;5.15;;;1.25;;
41217;SDS011;26950;50.960;7.138;2023-07-28T05:52:04;1.50;;;0.88;;
41217;SDS011;26950;50.960;7.138;2023-07-28T05:54:31;4.03;;;1.00;;
41217;SDS011;26950;50.960;7.138;2023-07-28T05:56:57;2.08;;;1.20;;
41217;SDS011;26950;50.960;7.138;2023-07-28T05:59:23;5.13;;;1.00;;
41217;SDS011;26950;50.960;7.138;2023-07-28T06:01:51;2.20;;;1.10;;
41217;SDS011;26950;50.960;7.138;2023-07-28T06:04:18;2.38;;;1.20;;
41217;SDS011;26950;50.960;7.138;2023-07-28T06:06:44;1.23;;;1.10;;
41217;SDS011;26950;50.960;7.138;2023-07-28T06:09:11;6.07;;;1.00;;
41217;SDS011;26950;50.960;7.138;2023-07-28T06:11:37;2.03;;;0.90;;
41217;SDS011;26950;50.960;7.138;2023-07-28T06:14:04;2.17;;;1.00;;
41217;SDS011;26950;50.960;7.138;2023-07-28T06:16:30;2.75;;;0.88;;
41217;SDS011;26950;50.960;7.138;2023-07-28T06:18:58;2.95;;;1.02;;
41217;SDS011;26950;50.960;7.138;2023-07-28T06:21:25;2.55;;;0.80;;
41217;SDS011;26950;50.960;7.138;2023-07-28T06:23:51;3.63;;;0.88;;
41217;SDS011;26950;50.960;7.138;2023-07-28T06:26:17;2.78;;;0.95;;
41217;SDS011;26950;50.960;7.138;2023-07-28T06:28:44;1.88;;;1.00;;
41217;SDS011;26950;50.960;7.138;2023-07-28T06:31:10;2.70;;;1.10;;
41217;SDS011;26950;50.960;7.138;2023-07-28T06:33:37;5.95;;;1.10;;
41217;SDS011;26950;50.960;7.138;2023-07-28T06:36:05;1.23;;;1.08;;
41217;SDS011;26950;50.960;7.138;2023-07-28T06:38:32;3.17;;;1.13;;
41217;SDS011;26950;50.960;7.138;2023-07-28T06:40:58;1.33;;;1.00;;
41217;SDS011;26950;50.960;7.138;2023-07-28T06:43:25;2.00;;;1.25;;
41217;SDS011;26950;50.960;7.138;2023-07-28T06:45:52;2.83;;;1.25;;
41217;SDS011;26950;50.960;7.138;2023-07-28T06:48:19;1.88;;;1.17;;
41217;SDS011;26950;50.960;7.138;2023-07-28T06:50:45;2.17;;;1.30;;
41217;SDS011;26950;50.960;7.138;2023-07-28T06:53:13;3.38;;;1.15;;
41217;SDS011;26950;50.960;7.138;2023-07-28T06:55:40;2.65;;;1.35;;
41217;SDS011;26950;50.960;7.138;2023-07-28T06:58:06;3.65;;;1.30;;
41217;SDS011;26950;50.960;7.138;2023-07-28T07:00:34;2.08;;;1.40;;
41217;SDS011;26950;50.960;7.138;2023-07-28T07:03:00;3.35;;;1.42;;
41217;SDS011;26950;50.960;7.138;2023-07-28T07:05:27;3.33;;;1.30;;
41217;SDS011;26950;50.960;7.138;2023-07-28T07:07:53;2.13;;;1.23;;
41217;SDS011;26950;50.960;7.138;2023-07-28T07:10:21;1.63;;;1.20;;
41217;SDS011;26950;50.960;7.138;2023-07-28T07:12:48;2.70;;;1.27;;
41217;SDS011;26950;50.960;7.138;2023-07-28T07:15:14;5.22;;;1.88;;
41217;SDS011;26950;50.960;7.138;2023-07-28T07:17:41;4.60;;;1.63;;
41217;SDS011;26950;50.960;7.138;2023-07-28T07:20:08;4.28;;;1.42;;
41217;SDS011;26950;50.960;7.138;2023-07-28T07:22:35;2.22;;;1.20;;
41217;SDS011;26950;50.960;7.138;2023-07-28T07:25:02;2.20;;;1.50;;
41217;SDS011;26950;50.960;7.138;2023-07-28T07:27:30;1.90;;;1.50;;
41217;SDS011;26950;50.960;7.138;2023-07-28T07:29:56;2.38;;;1.35;;
41217;SDS011;26950;50.960;7.138;2023-07-28T07:32:23;4.05;;;1.45;;
41217;SDS011;26950;50.960;7.138;2023-07-28T07:34:49;5.43;;;1.85;;
41217;SDS011;26950;50.960;7.138;2023-07-28T07:37:18;2.95;;;1.63;;
41217;SDS011;26950;50.960;7.138;2023-07-28T07:39:44;4.47;;;1.67;;
41217;SDS011;26950;50.960;7.138;2023-07-28T07:42:11;4.32;;;1.90;;
41217;SDS011;26950;50.960;7.138;2023-07-28T07:44:40;3.15;;;1.63;;
41217;SDS011;26950;50.960;7.138;2023-07-28T07:47:13;2.40;;;1.30;;
41217;SDS011;26950;50.960;7.138;2023-07-28T07:49:40;5.43;;;1.83;;
41217;SDS011;26950;50.960;7.138;2023-07-28T07:52:07;2.17;;;1.85;;
41217;SDS011;26950;50.960;7.138;2023-07-28T07:54:34;3.10;;;1.52;;
41217;SDS011;26950;50.960;7.138;2023-07-28T07:57:00;2.65;;;1.83;;
41217;SDS011;26950;50.960;7.138;2023-07-28T07:59:27;6.18;;;1.98;;
41217;SDS011;26950;50.960;7.138;2023-07-28T08:01:58;2.67;;;1.73;;
41217;SDS011;26950;50.960;7.138;2023-07-28T08:04:25;4.45;;;1.60;;
41217;SDS011;26950;50.960;7.138;2023-07-28T08:06:52;4.38;;;2.08;;
41217;SDS011;26950;50.960;7.138;2023-07-28T08:09:19;2.83;;;1.98;;
41217;SDS011;26950;50.960;7.138;2023-07-28T08:11:45;4.07;;;2.10;;
41217;SDS011;26950;50.960;7.138;2023-07-28T08:14:12;3.55;;;2.00;;
41217;SDS011;26950;50.960;7.138;2023-07-28T08:16:39;5.78;;;1.67;;
41217;SDS011;26950;50.960;7.138;2023-07-28T08:19:06;2.78;;;2.10;;
41217;SDS011;26950;50.960;7.138;2023-07-28T08:21:33;2.65;;;1.75;;
41217;SDS011;26950;50.960;7.138;2023-07-28T08:24:01;1.67;;;1.58;;
41217;SDS011;26950;50.960;7.138;2023-07-28T08:26:28;3.78;;;1.98;;
41217;SDS011;26950;50.960;7.138;2023-07-28T08:28:55;3.63;;;2.00;;
41217;SDS011;26950;50.960;7.138;2023-07-28T08:31:21;3.10;;;1.90;;
41217;SDS011;26950;50.960;7.138;2023-07-28T08:33:48;3.40;;;1.77;;
41217;SDS011;26950;50.960;7.138;2023-07-28T08:36:16;2.13;;;1.80;;
41217;SDS011;26950;50.960;7.138;2023-07-28T08:38:42;3.85;;;2.05;;
41217;SDS011;26950;50.960;7.138;2023-07-28T08:41:10;3.40;;;2.00;;
41217;SDS011;26950;50.960;7.138;2023-07-28T08:43:36;2.53;;;1.90;;
41217;SDS011;26950;50.960;7.138;2023-07-28T08:46:03;3.17;;;1.95;;
41217;SDS011;26950;50.960;7.138;2023-07-28T08:48:30;1.63;;;1.52;;
41217;SDS011;26950;50.960;7.138;2023-07-28T08:50:56;3.47;;;2.22;;
41217;SDS011;26950;50.960;7.138;2023-07-28T08:53:24;2.13;;;1.92;;
41217;SDS011;26950;50.960;7.138;2023-07-28T08:55:51;3.10;;;1.60;;
41217;SDS011;26950;50.960;7.138;2023-07-28T08:58:18;1.95;;;1.75;;
41217;SDS011;26950;50.960;7.138;2023-07-28T09:00:46;1.92;;;1.60;;
41217;SDS011;26950;50.960;7.138;2023-07-28T09:03:14;2.28;;;1.52;;
41217;SDS011;26950;50.960;7.138;2023-07-28T09:05:41;3.10;;;1.83;;
41217;SDS011;26950;50.960;7.138;2023-07-28T09:08:08;2.70;;;2.03;;
41217;SDS011;26950;50.960;7.138;2023-07-28T09:10:43;2.97;;;1.80;;
41217;SDS011;26950;50.960;7.138;2023-07-28T09:13:11;2.05;;;1.83;;
41217;SDS011;26950;50.960;7.138;2023-07-28T09:15:38;2.10;;;1.90;;
41217;SDS011;26950;50.960;7.138;2023-07-28T09:18:07;1.90;;;1.70;;
41217;SDS011;26950;50.960;7.138;2023-07-28T09:20:34;3.55;;;1.50;;
41217;SDS011;26950;50.960;7.138;2023-07-28T09:23:02;1.90;;;1.70;;
41217;SDS011;26950;50.960;7.138;2023-07-28T09:25:30;6.80;;;1.80;;
41217;SDS011;26950;50.960;7.138;2023-07-28T09:27:59;2.63;;;1.63;;
41217;SDS011;26950;50.960;7.138;2023-07-28T09:30:26;1.70;;;1.60;;
41217;SDS011;26950;50.960;7.138;2023-07-28T09:32:53;2.60;;;1.90;;
41217;SDS011;26950;50.960;7.138;2023-07-28T09:35:22;3.25;;;1.95;;
41217;SDS011;26950;50.960;7.138;2023-07-28T09:37:48;1.95;;;1.63;;
41217;SDS011;26950;50.960;7.138;2023-07-28T09:40:18;3.25;;;1.58;;
41217;SDS011;26950;50.960;7.138;2023-07-28T09:42:46;1.92;;;1.48;;
41217;SDS011;26950;50.960;7.138;2023-07-28T09:45:17;3.95;;;1.73;;
41217;SDS011;26950;50.960;7.138;2023-07-28T09:47:44;1.45;;;1.35;;
41217;SDS011;26950;50.960;7.138;2023-07-28T09:50:13;1.30;;;1.20;;
41217;SDS011;26950;50.960;7.138;2023-07-28T09:52:42;2.70;;;1.38;;
41217;SDS011;26950;50.960;7.138;2023-07-28T09:55:09;3.22;;;1.30;;
41217;SDS011;26950;50.960;7.138;2023-07-28T09:57:39;2.03;;;1.10;;
41217;SDS011;26950;50.960;7.138;2023-07-28T10:00:08;1.50;;;1.40;;
41217;SDS011;26950;50.960;7.138;2023-07-28T10:02:38;1.83;;;1.40;;
41217;SDS011;26950;50.960;7.138;2023-07-28T10:05:06;1.73;;;1.25;;
41217;SDS011;26950;50.960;7.138;2023-07-28T10:07:33;1.52;;;1.25;;
41217;SDS011;26950;50.960;7.138;2023-07-28T10:10:01;2.53;;;1.30;;
41217;SDS011;26950;50.960;7.138;2023-07-28T10:12:33;2.00;;;1.58;;
41217;SDS011;26950;50.960;7.138;2023-07-28T10:15:07;3.10;;;1.77;;
41217;SDS011;26950;50.960;7.138;2023-07-28T10:17:38;2.83;;;1.40;;
41217;SDS011;26950;50.960;7.138;2023-07-28T10:23:03;1.40;;;1.30;;
41217;SDS011;26950;50.960;7.138;2023-07-28T10:25:34;1.30;;;1.20;;
41217;SDS011;26950;50.960;7.138;2023-07-28T10:28:01;1.85;;;1.40;;
41217;SDS011;26950;50.960;7.138;2023-07-28T10:30:29;2.08;;;1.48;;
41217;SDS011;26950;50.960;7.138;2023-07-28T10:33:03;1.90;;;1.40;;
41217;SDS011;26950;50.960;7.138;2023-07-28T10:35:30;2.42;;;1.35;;
41217;SDS011;26950;50.960;7.138;2023-07-28T10:38:02;2.15;;;1.20;;
41217;SDS011;26950;50.960;7.138;2023-07-28T10:41:04;1.30;;;1.20;;
41217;SDS011;26950;50.960;7.138;2023-07-28T10:43:32;2.17;;;1.00;;
41217;SDS011;26950;50.960;7.138;2023-07-28T10:45:59;2.15;;;1.17;;
41217;SDS011;26950;50.960;7.138;2023-07-28T10:48:27;2.22;;;1.20;;
41217;SDS011;26950;50.960;7.138;2023-07-28T10:50:54;1.60;;;1.30;;
41217;SDS011;26950;50.960;7.138;2023-07-28T10:53:20;2.30;;;1.00;;
41217;SDS011;26950;50.960;7.138;2023-07-28T10:55:47;1.38;;;1.15;;
41217;SDS011;26950;50.960;7.138;2023-07-28T10:58:13;4.40;;;1.20;;
41217;SDS011;26950;50.960;7.138;2023-07-28T11:00:40;2.05;;;1.30;;
41217;SDS011;26950;50.960;7.138;2023-07-28T11:03:07;1.17;;;1.00;;
41217;SDS011;26950;50.960;7.138;2023-07-28T11:05:35;1.65;;;1.20;;
41217;SDS011;26950;50.960;7.138;2023-07-28T11:08:02;2.35;;;1.00;;
41217;SDS011;26950;50.960;7.138;2023-07-28T11:10:30;1.27;;;1.17;;
41217;SDS011;26950;50.960;7.138;2023-07-28T11:12:58;4.47;;;1.00;;
41217;SDS011;26950;50.960;7.138;2023-07-28T11:15:26;1.17;;;0.90;;
41217;SDS011;26950;50.960;7.138;2023-07-28T11:17:53;2.05;;;1.05;;
41217;SDS011;26950;50.960;7.138;2023-07-28T11:20:21;1.75;;;1.10;;
41217;SDS011;26950;50.960;7.138;2023-07-28T11:22:53;3.22;;;1.17;;
41217;SDS011;26950;50.960;7.138;2023-07-28T11:25:21;1.80;;;1.02;;
41217;SDS011;26950;50.960;7.138;2023-07-28T11:27:49;1.67;;;0.93;;
41217;SDS011;26950;50.960;7.138;2023-07-28T11:30:17;3.10;;;1.02;;
41217;SDS011;26950;50.960;7.138;2023-07-28T11:32:45;1.25;;;1.15;;
41217;SDS011;26950;50.960;7.138;2023-07-28T11:35:13;4.03;;;1.27;;
41217;SDS011;26950;50.960;7.138;2023-07-28T11:37:42;1.65;;;1.10;;
41217;SDS011;26950;50.960;7.138;2023-07-28T11:40:11;3.58;;;1.27;;
41217;SDS011;26950;50.960;7.138;2023-07-28T11:42:41;1.25;;;1.00;;
41217;SDS011;26950;50.960;7.138;2023-07-28T11:45:10;1.35;;;1.10;;
41217;SDS011;26950;50.960;7.138;2023-07-28T11:47:38;1.35;;;0.95;;
41217;SDS011;26950;50.960;7.138;2023-07-28T11:50:05;2.97;;;1.30;;
41217;SDS011;26950;50.960;7.138;2023-07-28T11:52:32;2.60;;;1.30;;
41217;SDS011;26950;50.960;7.138;2023-07-28T11:55:00;1.45;;;1.00;;
41217;SDS011;26950;50.960;7.138;2023-07-28T11:57:28;1.13;;;1.00;;
41217;SDS011;26950;50.960;7.138;2023-07-28T11:59:57;0.85;;;0.85;;
41217;SDS011;26950;50.960;7.138;2023-07-28T12:02:24;1.25;;;0.90;;
41217;SDS011;26950;50.960;7.138;2023-07-28T12:04:51;1.08;;;0.80;;
41217;SDS011;26950;50.960;7.138;2023-07-28T12:07:19;1.15;;;0.85;;
41217;SDS011;26950;50.960;7.138;2023-07-28T12:09:53;0.88;;;0.85;;
41217;SDS011;26950;50.960;7.138;2023-07-28T12:12:23;1.00;;;0.70;;
41217;SDS011;26950;50.960;7.138;2023-07-28T12:14:53;0.68;;;0.68;;
41217;SDS011;26950;50.960;7.138;2023-07-28T12:17:21;2.65;;;1.00;;
41217;SDS011;26950;50.960;7.138;2023-07-28T12:19:58;1.50;;;0.90;;
41217;SDS011;26950;50.960;7.138;2023-07-28T12:22:25;1.23;;;1.10;;
41217;SDS011;26950;50.960;7.138;2023-07-28T12:24:51;1.70;;;0.90;;
41217;SDS011;26950;50.960;7.138;2023-07-28T12:27:18;0.88;;;0.88;;
41217;SDS011;26950;50.960;7.138;2023-07-28T12:29:48;1.92;;;0.90;;
41217;SDS011;26950;50.960;7.138;2023-07-28T12:32:16;1.10;;;1.00;;
41217;SDS011;26950;50.960;7.138;2023-07-28T12:34:43;3.20;;;1.10;;
41217;SDS011;26950;50.960;7.138;2023-07-28T12:37:09;2.15;;;1.10;;
41217;SDS011;26950;50.960;7.138;2023-07-28T12:39:36;1.48;;;0.98;;
41217;SDS011;26950;50.960;7.138;2023-07-28T12:42:05;1.13;;;1.02;;
41217;SDS011;26950;50.960;7.138;2023-07-28T12:44:31;1.92;;;1.00;;
41217;SDS011;26950;50.960;7.138;2023-07-28T12:46:58;1.13;;;0.80;;
41217;SDS011;26950;50.960;7.138;2023-07-28T12:49:26;1.00;;;0.90;;
41217;SDS011;26950;50.960;7.138;2023-07-28T12:51:54;1.05;;;1.00;;
41217;SDS011;26950;50.960;7.138;2023-07-28T12:54:21;1.10;;;1.00;;
41217;SDS011;26950;50.960;7.138;2023-07-28T12:56:47;1.30;;;0.73;;
41217;SDS011;26950;50.960;7.138;2023-07-28T12:59:14;1.73;;;1.00;;
41217;SDS011;26950;50.960;7.138;2023-07-28T13:01:41;6.40;;;1.10;;
41217;SDS011;26950;50.960;7.138;2023-07-28T13:04:07;1.48;;;0.93;;
41217;SDS011;26950;50.960;7.138;2023-07-28T13:06:35;1.10;;;1.00;;
41217;SDS011;26950;50.960;7.138;2023-07-28T13:09:02;1.17;;;1.02;;
41217;SDS011;26950;50.960;7.138;2023-07-28T13:11:29;1.20;;;1.10;;
41217;SDS011;26950;50.960;7.138;2023-07-28T13:13:56;1.98;;;0.98;;
41217;SDS011;26950;50.960;7.138;2023-07-28T13:16:22;0.90;;;0.90;;
41217;SDS011;26950;50.960;7.138;2023-07-28T13:18:49;3.38;;;1.02;;
41217;SDS011;26950;50.960;7.138;2023-07-28T13:21:16;4.45;;;1.73;;
41217;SDS011;26950;50.960;7.138;2023-07-28T13:23:43;3.92;;;2.03;;
41217;SDS011;26950;50.960;7.138;2023-07-28T13:26:10;2.25;;;1.58;;
41217;SDS011;26950;50.960;7.138;2023-07-28T13:28:37;1.70;;;1.30;;
41217;SDS011;26950;50.960;7.138;2023-07-28T13:31:04;0.90;;;0.90;;
41217;SDS011;26950;50.960;7.138;2023-07-28T13:33:31;1.67;;;1.20;;
41217;SDS011;26950;50.960;7.138;2023-07-28T13:35:57;1.13;;;1.00;;
41217;SDS011;26950;50.960;7.138;2023-07-28T13:38:24;1.20;;;1.00;;
41217;SDS011;26950;50.960;7.138;2023-07-28T13:40:52;1.67;;;1.00;;
41217;SDS011;26950;50.960;7.138;2023-07-28T13:43:18;1.65;;;0.85;;
41217;SDS011;26950;50.960;7.138;2023-07-28T13:45:45;0.90;;;0.90;;
41217;SDS011;26950;50.960;7.138;2023-07-28T13:48:11;1.48;;;1.10;;
41217;SDS011;26950;50.960;7.138;2023-07-28T13:50:37;1.27;;;0.82;;
41217;SDS011;26950;50.960;7.138;2023-07-28T13:53:04;1.88;;;0.95;;
41217;SDS011;26950;50.960;7.138;2023-07-28T13:55:30;1.15;;;1.05;;
41217;SDS011;26950;50.960;7.138;2023-07-28T13:57:58;2.35;;;0.95;;
41217;SDS011;26950;50.960;7.138;2023-07-28T14:00:25;1.35;;;1.10;;
41217;SDS011;26950;50.960;7.138;2023-07-28T14:02:51;0.98;;;0.90;;
41217;SDS011;26950;50.960;7.138;2023-07-28T14:05:18;2.83;;;0.90;;
41217;SDS011;26950;50.960;7.138;2023-07-28T14:07:44;2.45;;;1.00;;
41217;SDS011;26950;50.960;7.138;2023-07-28T14:10:11;1.35;;;0.82;;
41217;SDS011;26950;50.960;7.138;2023-07-28T14:12:37;1.00;;;0.90;;
41217;SDS011;26950;50.960;7.138;2023-07-28T14:15:06;1.00;;;0.90;;
41217;SDS011;26950;50.960;7.138;2023-07-28T14:17:33;0.80;;;0.70;;
41217;SDS011;26950;50.960;7.138;2023-07-28T14:20:00;1.55;;;1.30;;
41217;SDS011;26950;50.960;7.138;2023-07-28T14:22:27;2.47;;;0.90;;
41217;SDS011;26950;50.960;7.138;2023-07-28T14:24:53;1.10;;;0.95;;
41217;SDS011;26950;50.960;7.138;2023-07-28T14:27:20;1.98;;;0.85;;
41217;SDS011;26950;50.960;7.138;2023-07-28T14:29:46;1.05;;;1.00;;
41217;SDS011;26950;50.960;7.138;2023-07-28T14:32:14;1.45;;;0.80;;
41217;SDS011;26950;50.960;7.138;2023-07-28T14:34:40;2.45;;;1.00;;
41217;SDS011;26950;50.960;7.138;2023-07-28T14:37:07;1.92;;;1.10;;
41217;SDS011;26950;50.960;7.138;2023-07-28T14:39:34;1.52;;;0.90;;
41217;SDS011;26950;50.960;7.138;2023-07-28T14:42:01;1.25;;;0.80;;
41217;SDS011;26950;50.960;7.138;2023-07-28T14:44:28;1.10;;;1.00;;
41217;SDS011;26950;50.960;7.138;2023-07-28T14:46:55;2.05;;;0.90;;
41217;SDS011;26950;50.960;7.138;2023-07-28T14:49:22;0.90;;;0.80;;
41217;SDS011;26950;50.960;7.138;2023-07-28T14:51:52;2.47;;;0.90;;